Time;durP1;ratioP1;P1;durP2;ratioP2;P2;SDS_P1;SDS_P2;PMS_P1;PMS_P2;Temp;Humidity;BMP_temperature;BMP_pressure;BME280_temperature;BME280_humidity;BME280_pressure;Samples;Min_cycle;Max_cycle;Signal;HPM_P1;HPM_P2
2022/10/07 00:00:33;;;;;;;7.70;3.10;;;11.20;99.90;;;;;;2083971;28;20032;-71
2022/10/07 00:01:33;;;;;;;9.15;2.95;;;11.20;99.90;;;;;;2085378;28;20067;-71
2022/10/07 00:02:34;;;;;;;6.60;2.67;;;11.10;99.90;;;;;;2083897;28;20500;-71
2022/10/07 00:03:35;;;;;;;8.07;2.35;;;11.20;99.90;;;;;;2077837;28;20029;-71
2022/10/07 00:04:36;;;;;;;6.80;2.95;;;11.20;99.90;;;;;;2076888;28;20029;-71
2022/10/07 00:05:36;;;;;;;4.78;2.63;;;11.20;99.90;;;;;;2086062;28;20083;-71
2022/10/07 00:06:37;;;;;;;6.97;2.80;;;11.20;99.90;;;;;;2083772;28;20136;-71
2022/10/07 00:07:37;;;;;;;8.68;2.72;;;11.10;99.90;;;;;;2086549;28;20040;-71
2022/10/07 00:08:40;;;;;;;8.80;2.70;;;11.20;99.90;;;;;;2083117;28;20029;-71
2022/10/07 00:09:41;;;;;;;10.40;3.10;;;11.10;99.90;;;;;;2082931;28;20622;-71
2022/10/07 00:10:42;;;;;;;6.88;2.97;;;11.20;99.90;;;;;;2086789;28;20025;-71
2022/10/07 00:11:42;;;;;;;8.98;2.78;;;11.10;99.90;;;;;;2086023;28;20056;-71
2022/10/07 00:12:43;;;;;;;10.27;3.53;;;11.20;99.90;;;;;;2083855;28;20029;-71
2022/10/07 00:13:45;;;;;;;9.07;2.92;;;11.10;99.90;;;;;;2075921;28;20021;-71
2022/10/07 00:14:46;;;;;;;9.73;2.95;;;11.20;99.90;;;;;;2077891;28;20405;-71
2022/10/07 00:15:46;;;;;;;9.30;2.92;;;11.10;99.90;;;;;;2076201;28;20180;-71
2022/10/07 00:16:47;;;;;;;6.05;3.08;;;11.10;99.90;;;;;;2075572;28;20076;-71
2022/10/07 00:17:47;;;;;;;6.82;2.78;;;11.10;99.90;;;;;;2084943;28;20036;-71
2022/10/07 00:18:49;;;;;;;11.52;3.65;;;11.10;99.90;;;;;;2083821;28;20054;-71
2022/10/07 00:19:49;;;;;;;10.55;3.60;;;11.10;99.90;;;;;;2083917;28;20029;-71
2022/10/07 00:20:50;;;;;;;7.97;2.97;;;11.10;99.90;;;;;;2083440;28;20476;-71
2022/10/07 00:21:51;;;;;;;7.13;2.75;;;11.10;99.90;;;;;;2084990;28;20031;-71
2022/10/07 00:22:52;;;;;;;9.63;3.17;;;11.10;99.90;;;;;;2083943;28;20028;-71
2022/10/07 00:23:53;;;;;;;8.80;3.38;;;11.10;99.90;;;;;;2085268;28;20074;-71
2022/10/07 00:24:53;;;;;;;13.68;3.53;;;11.10;99.90;;;;;;2085110;28;20067;-71
2022/10/07 00:25:59;;;;;;;12.38;3.55;;;11.10;99.90;;;;;;2084168;28;20078;-71
2022/10/07 00:27:00;;;;;;;6.88;2.78;;;11.10;99.90;;;;;;2086285;28;20013;-71
2022/10/07 00:28:00;;;;;;;9.45;3.13;;;11.00;99.90;;;;;;2083900;28;20025;-71
2022/10/07 00:29:03;;;;;;;7.60;3.00;;;11.00;99.90;;;;;;2086956;28;20032;-71
2022/10/07 00:30:04;;;;;;;9.05;3.00;;;11.00;99.90;;;;;;2084328;28;20029;-71
2022/10/07 00:31:13;;;;;;;8.68;2.90;;;11.10;99.90;;;;;;2084368;28;20060;-72
2022/10/07 00:32:14;;;;;;;9.73;2.80;;;11.10;99.90;;;;;;2083131;28;20025;-71
2022/10/07 00:33:14;;;;;;;7.50;2.80;;;11.00;99.90;;;;;;2076649;28;20029;-71
2022/10/07 00:34:15;;;;;;;9.63;2.90;;;11.10;99.90;;;;;;2076818;28;20089;-71
2022/10/07 00:35:15;;;;;;;8.40;2.53;;;11.00;99.90;;;;;;2085555;28;20508;-71
2022/10/07 00:36:19;;;;;;;5.60;2.75;;;11.00;99.90;;;;;;2085177;28;20021;-71
2022/10/07 00:37:19;;;;;;;8.05;2.78;;;11.10;99.90;;;;;;2084254;28;20628;-71
2022/10/07 00:38:20;;;;;;;7.53;3.03;;;11.00;99.90;;;;;;2085935;28;20025;-71
2022/10/07 00:39:21;;;;;;;11.23;2.92;;;11.00;99.90;;;;;;2085970;28;20025;-71
2022/10/07 00:40:21;;;;;;;6.45;2.50;;;11.00;99.90;;;;;;2086228;28;20096;-71
2022/10/07 00:41:27;;;;;;;13.52;3.22;;;11.00;99.90;;;;;;2084985;28;20477;-71
2022/10/07 00:42:29;;;;;;;11.95;3.13;;;11.00;99.90;;;;;;2085053;28;20025;-71
2022/10/07 00:43:31;;;;;;;10.60;3.30;;;11.00;99.90;;;;;;2084915;28;20036;-71
2022/10/07 00:44:35;;;;;;;7.47;2.85;;;11.00;99.90;;;;;;2083584;28;20044;-71
2022/10/07 00:45:36;;;;;;;9.63;3.65;;;11.00;99.90;;;;;;2076733;28;20022;-71
2022/10/07 00:46:39;;;;;;;6.22;2.53;;;11.00;99.90;;;;;;2074979;28;20026;-71
2022/10/07 00:47:44;;;;;;;10.93;3.25;;;11.00;99.90;;;;;;2082173;28;21292;-71
2022/10/07 00:48:45;;;;;;;9.18;3.42;;;11.00;99.90;;;;;;2085345;28;20621;-71
2022/10/07 00:50:00;;;;;;;12.63;3.35;;;11.00;99.90;;;;;;2076178;28;20029;-71
2022/10/07 00:51:02;;;;;;;9.25;2.80;;;11.00;99.90;;;;;;2079054;28;20077;-71
2022/10/07 00:52:03;;;;;;;13.43;3.35;;;11.00;99.90;;;;;;2085485;28;20072;-71
2022/10/07 00:53:03;;;;;;;6.75;2.80;;;11.00;99.90;;;;;;2084949;28;20061;-71
2022/10/07 00:54:09;;;;;;;5.97;2.63;;;11.00;99.90;;;;;;2085587;28;20032;-71
2022/10/07 00:55:13;;;;;;;8.02;2.88;;;11.00;99.90;;;;;;2083647;28;20051;-71
2022/10/07 00:56:16;;;;;;;9.27;3.55;;;11.00;99.90;;;;;;2084517;28;20036;-71
2022/10/07 00:57:16;;;;;;;11.30;3.10;;;11.00;99.90;;;;;;2084906;28;20029;-71
2022/10/07 00:58:18;;;;;;;14.30;3.30;;;11.00;99.90;;;;;;2085295;28;20082;-71
2022/10/07 00:59:19;;;;;;;7.75;3.08;;;10.90;99.90;;;;;;2083813;28;20155;-71
2022/10/07 01:00:23;;;;;;;10.50;3.28;;;11.00;99.90;;;;;;2084175;28;20094;-71
2022/10/07 01:01:25;;;;;;;9.45;3.35;;;10.90;99.90;;;;;;2086560;28;20036;-71
2022/10/07 01:02:27;;;;;;;10.88;3.15;;;11.00;99.90;;;;;;2091669;28;20111;-71
2022/10/07 01:03:28;;;;;;;11.27;3.80;;;10.90;99.90;;;;;;2089422;28;20055;-71
2022/10/07 01:04:29;;;;;;;12.02;3.30;;;11.00;99.90;;;;;;2086660;28;20029;-72
2022/10/07 01:05:30;;;;;;;5.05;2.78;;;11.00;99.90;;;;;;2077522;28;20113;-72
2022/10/07 01:06:30;;;;;;;11.82;3.65;;;11.00;99.90;;;;;;2076763;28;20081;-72
2022/10/07 01:07:32;;;;;;;9.15;3.40;;;11.00;99.90;;;;;;2087935;28;20048;-71
2022/10/07 01:08:33;;;;;;;12.05;3.35;;;10.90;99.90;;;;;;2087063;28;20081;-71
2022/10/07 01:09:34;;;;;;;10.05;2.97;;;10.90;99.90;;;;;;2085148;28;20083;-71
2022/10/07 01:11:19;;;;;;;11.05;3.30;;;10.90;99.90;;;;;;2087212;28;20021;-71
2022/10/07 01:12:48;;;;;;;9.85;3.17;;;10.90;99.90;;;;;;2085912;28;20054;-71
2022/10/07 01:14:02;;;;;;;11.45;2.92;;;10.90;99.90;;;;;;2086599;28;20036;-71
2022/10/07 01:15:31;;;;;;;9.30;3.60;;;10.90;99.90;;;;;;2087712;28;20029;-72
2022/10/07 01:16:59;;;;;;;9.48;3.00;;;10.80;99.90;;;;;;2082423;28;20108;-72
2022/10/07 01:18:11;;;;;;;12.25;3.47;;;10.80;99.90;;;;;;2086416;28;20120;-71
2022/10/07 01:19:30;;;;;;;9.25;3.40;;;10.80;99.90;;;;;;2077966;28;20850;-71
2022/10/07 01:20:44;;;;;;;11.00;3.63;;;10.80;99.90;;;;;;2081425;28;20523;-71
2022/10/07 01:22:18;;;;;;;9.80;3.45;;;10.80;99.90;;;;;;2085853;28;20558;-71
2022/10/07 01:23:43;;;;;;;11.45;3.65;;;10.80;99.90;;;;;;2085146;28;20067;-71
2022/10/07 01:25:02;;;;;;;10.82;3.60;;;10.80;99.90;;;;;;2085272;28;20025;-71
2022/10/07 01:26:31;;;;;;;11.13;3.35;;;10.80;99.90;;;;;;2086712;28;20079;-71
2022/10/07 01:27:32;;;;;;;13.15;3.58;;;10.80;99.90;;;;;;2087279;28;20044;-71
2022/10/07 01:28:38;;;;;;;11.25;3.15;;;10.80;99.90;;;;;;2086581;28;20021;-72
2022/10/07 01:29:54;;;;;;;7.80;2.67;;;10.80;99.90;;;;;;2086360;28;20866;-72
2022/10/07 01:30:59;;;;;;;10.07;2.78;;;10.80;99.90;;;;;;2086654;28;20521;-72
2022/10/07 01:32:18;;;;;;;11.77;3.58;;;10.80;99.90;;;;;;2086734;28;20071;-72
2022/10/07 01:33:26;;;;;;;8.30;3.92;;;10.80;99.90;;;;;;2084646;28;20024;-71
2022/10/07 01:34:27;;;;;;;10.20;3.80;;;10.80;99.90;;;;;;2087401;28;20055;-71
2022/10/07 01:35:33;;;;;;;11.82;3.90;;;10.80;99.90;;;;;;2085942;28;20021;-71
2022/10/07 01:36:35;;;;;;;8.35;3.17;;;10.80;99.90;;;;;;2085925;28;20029;-72
2022/10/07 01:37:41;;;;;;;10.02;3.47;;;10.80;99.90;;;;;;2085289;28;20029;-72
2022/10/07 01:38:49;;;;;;;6.18;2.70;;;10.80;99.90;;;;;;2079058;28;20028;-71
2022/10/07 01:39:56;;;;;;;8.38;2.95;;;10.80;99.90;;;;;;2078590;28;20027;-71
2022/10/07 01:41:03;;;;;;;8.32;3.33;;;10.80;99.90;;;;;;2077538;28;20040;-71
2022/10/07 01:42:04;;;;;;;7.75;3.25;;;10.80;99.90;;;;;;2080220;28;20025;-71
2022/10/07 01:43:05;;;;;;;9.32;3.45;;;10.80;99.90;;;;;;2085135;28;20144;-72
2022/10/07 01:44:09;;;;;;;9.80;3.15;;;10.80;99.90;;;;;;2086472;28;20472;-71
2022/10/07 01:45:13;;;;;;;7.38;3.53;;;10.80;99.90;;;;;;2085783;28;20451;-72
2022/10/07 01:46:19;;;;;;;9.88;3.63;;;10.80;99.90;;;;;;2084821;28;20025;-72
2022/10/07 01:47:19;;;;;;;7.53;3.15;;;10.80;99.90;;;;;;2086234;28;20029;-71
2022/10/07 01:48:20;;;;;;;7.93;2.80;;;10.80;99.90;;;;;;2084508;28;20038;-71
2022/10/07 01:49:21;;;;;;;8.90;2.92;;;10.80;99.90;;;;;;2086345;28;20021;-71
2022/10/07 01:50:26;;;;;;;10.43;3.90;;;10.80;99.90;;;;;;2087111;28;20033;-71
2022/10/07 01:51:32;;;;;;;10.27;2.85;;;10.80;99.90;;;;;;2085734;28;20053;-71
2022/10/07 01:52:47;;;;;;;12.05;3.53;;;10.80;99.90;;;;;;2085576;28;20021;-71
2022/10/07 01:54:26;;;;;;;8.48;3.80;;;10.80;99.90;;;;;;2086122;28;20068;-72
2022/10/07 01:56:01;;;;;;;9.05;2.83;;;10.70;99.90;;;;;;2085674;28;20032;-71
2022/10/07 01:57:31;;;;;;;9.82;3.75;;;10.70;99.90;;;;;;2089297;28;20456;-71
2022/10/07 01:58:44;;;;;;;10.55;3.47;;;10.70;99.90;;;;;;2086541;28;20487;-71
2022/10/07 01:59:45;;;;;;;11.98;3.47;;;10.70;99.90;;;;;;2084988;28;20083;-71
2022/10/07 02:00:55;;;;;;;12.43;3.28;;;10.70;99.90;;;;;;2084936;28;20029;-71
2022/10/07 02:02:02;;;;;;;;;;;10.60;99.90;;;;;;2086056;28;20387;-72
2022/10/07 02:03:21;;;;;;;8.90;3.92;;;10.60;99.90;;;;;;2085938;28;20300;-72
2022/10/07 02:04:25;;;;;;;7.75;3.53;;;10.60;99.90;;;;;;2085684;28;20025;-71
2022/10/07 02:05:54;;;;;;;8.75;3.67;;;10.60;99.90;;;;;;2085737;28;20436;-71
2022/10/07 02:07:16;;;;;;;8.68;3.17;;;10.60;99.90;;;;;;2071840;28;20041;-71
2022/10/07 02:08:38;;;;;;;8.68;3.17;;;10.60;99.90;;;;;;2083125;28;20021;-71
2022/10/07 02:09:50;;;;;;;6.93;3.25;;;10.60;99.90;;;;;;2085727;28;20067;-71
2022/10/07 02:11:14;;;;;;;14.80;3.63;;;10.60;99.90;;;;;;2086825;28;20017;-72
2022/10/07 02:12:23;;;;;;;4.50;2.80;;;10.60;99.90;;;;;;2085616;28;20035;-71
2022/10/07 02:13:56;;;;;;;11.18;3.05;;;10.60;99.90;;;;;;2085575;28;20025;-71
2022/10/07 02:15:22;;;;;;;8.10;3.00;;;10.60;99.90;;;;;;2086682;28;20113;-72
2022/10/07 02:16:38;;;;;;;8.95;3.47;;;10.50;99.90;;;;;;2087190;28;20039;-71
2022/10/07 02:17:45;;;;;;;8.30;3.78;;;10.50;99.90;;;;;;2083523;28;20056;-72
2022/10/07 02:18:49;;;;;;;9.15;4.15;;;10.50;99.90;;;;;;2087128;28;20049;-71
2022/10/07 02:19:55;;;;;;;7.30;2.92;;;10.50;99.90;;;;;;2085627;28;20021;-72
2022/10/07 02:20:56;;;;;;;7.88;2.90;;;10.50;99.90;;;;;;2085236;28;20029;-72
2022/10/07 02:22:00;;;;;;;10.05;3.17;;;10.50;99.90;;;;;;2085716;28;20091;-72
2022/10/07 02:23:04;;;;;;;8.65;3.08;;;10.50;99.90;;;;;;2084529;28;20553;-71
2022/10/07 02:24:09;;;;;;;11.40;3.20;;;10.60;99.90;;;;;;2086605;28;20041;-71
2022/10/07 02:25:12;;;;;;;12.90;3.92;;;10.50;99.90;;;;;;2086304;28;20068;-71
2022/10/07 02:26:17;;;;;;;8.05;3.17;;;10.60;99.90;;;;;;2085808;28;20516;-71
2022/10/07 02:27:23;;;;;;;10.32;4.13;;;10.50;99.90;;;;;;2087226;28;20469;-71
2022/10/07 02:28:25;;;;;;;8.85;3.83;;;10.60;99.90;;;;;;2086807;28;20473;-71
2022/10/07 02:29:29;;;;;;;11.98;3.58;;;10.50;99.90;;;;;;2085580;28;20051;-71
2022/10/07 02:30:31;;;;;;;7.07;3.35;;;10.50;99.90;;;;;;2085961;28;20035;-71
2022/10/07 02:31:33;;;;;;;7.47;3.05;;;10.60;99.90;;;;;;2086438;28;20033;-72
2022/10/07 02:32:35;;;;;;;11.77;3.60;;;10.60;99.90;;;;;;2086610;28;20063;-71
2022/10/07 02:33:37;;;;;;;7.22;3.72;;;10.60;99.90;;;;;;2086582;28;20059;-71
2022/10/07 02:34:42;;;;;;;12.15;4.22;;;10.60;99.90;;;;;;2086293;28;20071;-71
2022/10/07 02:35:49;;;;;;;8.45;2.97;;;10.60;99.90;;;;;;2085734;28;20080;-72
2022/10/07 02:36:54;;;;;;;9.52;3.58;;;10.50;99.90;;;;;;2087584;28;20021;-72
2022/10/07 02:37:59;;;;;;;11.55;4.07;;;10.50;99.90;;;;;;2085991;28;20044;-71
2022/10/07 02:39:08;;;;;;;10.57;3.63;;;10.50;99.90;;;;;;2085029;28;20036;-72
2022/10/07 02:40:08;;;;;;;12.50;3.90;;;10.50;99.90;;;;;;2084727;28;20025;-72
2022/10/07 02:41:30;;;;;;;8.50;3.58;;;10.50;99.90;;;;;;2085395;28;20032;-72
2022/10/07 02:42:38;;;;;;;7.05;3.03;;;10.50;99.90;;;;;;2086856;28;20079;-71
2022/10/07 02:43:45;;;;;;;6.13;3.38;;;10.50;99.90;;;;;;2084646;28;20115;-72
2022/10/07 02:44:51;;;;;;;9.85;3.10;;;10.50;99.90;;;;;;2087224;28;20052;-72
2022/10/07 02:46:02;;;;;;;8.23;3.40;;;10.50;99.90;;;;;;2086299;28;20025;-71
2022/10/07 02:47:13;;;;;;;10.63;3.15;;;10.50;99.90;;;;;;2085172;28;20025;-71
2022/10/07 02:48:22;;;;;;;9.20;3.50;;;10.50;99.90;;;;;;2086669;28;20029;-72
2022/10/07 02:49:24;;;;;;;6.80;3.60;;;10.50;99.90;;;;;;2077059;28;20026;-72
2022/10/07 02:50:30;;;;;;;8.45;3.60;;;10.40;99.90;;;;;;2069202;28;20033;-72
2022/10/07 02:52:04;;;;;;;11.55;4.07;;;10.50;99.90;;;;;;2079183;28;20013;-72
2022/10/07 02:53:06;;;;;;;7.20;3.50;;;10.40;99.90;;;;;;2085420;28;20493;-71
2022/10/07 02:54:06;;;;;;;7.85;3.10;;;10.40;99.90;;;;;;2087082;28;20111;-71
2022/10/07 02:55:11;;;;;;;7.90;4.05;;;10.40;99.90;;;;;;2085057;28;20488;-71
2022/10/07 02:56:12;;;;;;;8.02;3.30;;;10.40;99.90;;;;;;2085858;28;20112;-71
2022/10/07 02:57:18;;;;;;;10.27;3.92;;;10.40;99.90;;;;;;2087201;28;20113;-71
2022/10/07 02:58:23;;;;;;;8.52;3.58;;;10.40;99.90;;;;;;2084273;28;20722;-71
2022/10/07 02:59:24;;;;;;;6.22;3.40;;;10.40;99.90;;;;;;2086565;28;20032;-71
2022/10/07 03:00:28;;;;;;;10.23;3.28;;;10.40;99.90;;;;;;2085917;28;20522;-71
2022/10/07 03:01:36;;;;;;;8.82;3.97;;;10.40;99.90;;;;;;2086239;28;20029;-71
2022/10/07 03:02:51;;;;;;;6.60;3.42;;;10.40;99.90;;;;;;2086264;28;20028;-71
2022/10/07 03:03:51;;;;;;;10.93;3.70;;;10.40;99.90;;;;;;2085928;28;20024;-72
2022/10/07 03:04:52;;;;;;;6.25;3.10;;;10.40;99.90;;;;;;2085885;28;20068;-71
2022/10/07 03:05:53;;;;;;;6.25;3.38;;;10.40;99.90;;;;;;2085794;28;20024;-71
2022/10/07 03:06:57;;;;;;;5.03;3.20;;;10.40;99.90;;;;;;2086358;28;20032;-71
2022/10/07 03:08:06;;;;;;;7.05;3.65;;;10.40;99.90;;;;;;2077966;28;20094;-71
2022/10/07 03:09:08;;;;;;;5.60;3.40;;;10.40;99.90;;;;;;2079005;28;20060;-72
2022/10/07 03:10:08;;;;;;;6.55;3.60;;;10.40;99.90;;;;;;2086821;28;20029;-72
2022/10/07 03:11:09;;;;;;;9.05;3.22;;;10.40;99.90;;;;;;2085803;28;20063;-72
2022/10/07 03:12:10;;;;;;;7.75;3.25;;;10.40;99.90;;;;;;2087174;28;20033;-71
2022/10/07 03:13:10;;;;;;;12.80;4.13;;;10.40;99.90;;;;;;2085127;28;20116;-71
2022/10/07 03:14:11;;;;;;;7.65;3.10;;;10.40;99.90;;;;;;2086561;28;20449;-71
2022/10/07 03:15:12;;;;;;;7.82;3.05;;;10.40;99.90;;;;;;2083389;28;20034;-71
2022/10/07 03:16:13;;;;;;;9.30;3.83;;;10.40;99.90;;;;;;2086324;28;20099;-72
2022/10/07 03:17:13;;;;;;;5.82;3.10;;;10.40;99.90;;;;;;2078083;28;20040;-72
2022/10/07 03:18:27;;;;;;;5.22;2.97;;;10.40;99.90;;;;;;2075545;28;20068;-72
2022/10/07 03:19:27;;;;;;;8.55;3.03;;;10.40;99.90;;;;;;2086029;28;20025;-72
2022/10/07 03:20:29;;;;;;;10.23;3.17;;;10.40;99.90;;;;;;2084577;28;20024;-71
2022/10/07 03:21:32;;;;;;;11.43;3.42;;;10.40;99.90;;;;;;2087109;28;20380;-71
2022/10/07 03:22:33;;;;;;;6.95;3.28;;;10.30;99.90;;;;;;2086270;28;20028;-71
2022/10/07 03:23:34;;;;;;;6.72;3.08;;;10.30;99.90;;;;;;2085048;28;20025;-72
2022/10/07 03:24:34;;;;;;;9.35;3.30;;;10.30;99.90;;;;;;2085702;28;20103;-72
2022/10/07 03:25:35;;;;;;;10.50;2.88;;;10.30;99.90;;;;;;2084560;28;20434;-72
2022/10/07 03:26:36;;;;;;;10.10;3.60;;;10.30;99.90;;;;;;2085923;28;20021;-72
2022/10/07 03:27:37;;;;;;;9.88;3.22;;;10.30;99.90;;;;;;2084724;28;20524;-72
2022/10/07 03:28:37;;;;;;;4.85;2.65;;;10.30;99.90;;;;;;2085235;28;20677;-72
2022/10/07 03:29:38;;;;;;;7.43;2.97;;;10.30;99.90;;;;;;2086275;28;20027;-72
2022/10/07 03:30:38;;;;;;;8.65;3.60;;;10.30;99.90;;;;;;2086570;28;20040;-71
2022/10/07 03:31:41;;;;;;;5.88;3.25;;;10.30;99.90;;;;;;2085545;28;20461;-71
2022/10/07 03:32:41;;;;;;;8.85;3.45;;;10.30;99.90;;;;;;2084971;28;20020;-71
2022/10/07 03:33:42;;;;;;;8.52;3.60;;;10.30;99.90;;;;;;2084364;28;20066;-71
2022/10/07 03:34:43;;;;;;;8.10;2.80;;;10.30;99.90;;;;;;2086350;28;20071;-71
2022/10/07 03:35:43;;;;;;;11.43;3.33;;;10.30;99.90;;;;;;2085774;28;20044;-71
2022/10/07 03:36:44;;;;;;;9.43;3.03;;;10.30;99.90;;;;;;2078257;28;20531;-71
2022/10/07 03:37:45;;;;;;;6.97;3.10;;;10.30;99.90;;;;;;2078970;28;20080;-71
2022/10/07 03:38:45;;;;;;;8.68;3.38;;;10.30;99.90;;;;;;2085783;28;20465;-71
2022/10/07 03:39:46;;;;;;;12.55;3.67;;;10.30;99.90;;;;;;2086541;28;20032;-71
2022/10/07 03:40:46;;;;;;;9.50;4.22;;;10.30;99.90;;;;;;2093617;28;20056;-71
2022/10/07 03:41:48;;;;;;;8.27;3.30;;;10.30;99.90;;;;;;2090446;28;20067;-71
2022/10/07 03:42:49;;;;;;;6.57;3.30;;;10.30;99.90;;;;;;2086712;28;20021;-71
2022/10/07 03:43:50;;;;;;;7.25;3.00;;;10.20;99.90;;;;;;2086038;28;20044;-72
2022/10/07 03:44:51;;;;;;;9.85;4.00;;;10.20;99.90;;;;;;2085803;28;20032;-71
2022/10/07 03:45:51;;;;;;;8.13;2.78;;;10.20;99.90;;;;;;2077913;28;20467;-71
2022/10/07 03:46:52;;;;;;;8.48;3.05;;;10.20;99.90;;;;;;2076679;28;20088;-71
2022/10/07 03:47:52;;;;;;;6.32;2.95;;;10.20;99.90;;;;;;2084920;28;20021;-72
2022/10/07 03:48:53;;;;;;;12.98;3.20;;;10.20;99.90;;;;;;2086869;28;20098;-71
2022/10/07 03:49:55;;;;;;;6.93;2.70;;;10.20;99.90;;;;;;2084285;28;20036;-71
2022/10/07 03:50:56;;;;;;;9.73;3.10;;;10.20;99.90;;;;;;2085963;28;20484;-71
2022/10/07 03:51:59;;;;;;;6.43;2.72;;;10.20;99.90;;;;;;2085997;28;20044;-72
2022/10/07 03:52:59;;;;;;;10.15;3.97;;;10.20;99.90;;;;;;2084472;28;20025;-72
2022/10/07 03:54:00;;;;;;;9.15;3.50;;;10.20;99.90;;;;;;2077535;28;20780;-72
2022/10/07 03:55:01;;;;;;;6.30;3.17;;;10.20;99.90;;;;;;2077840;28;20036;-71
2022/10/07 03:56:01;;;;;;;8.90;3.30;;;10.20;99.90;;;;;;2086319;28;20021;-72
2022/10/07 03:57:02;;;;;;;7.10;3.00;;;10.20;99.90;;;;;;2077098;28;20033;-72
2022/10/07 03:58:02;;;;;;;5.22;2.80;;;10.20;99.90;;;;;;2076731;28;20812;-72
2022/10/07 03:59:03;;;;;;;10.07;3.20;;;10.20;99.90;;;;;;2086641;28;20113;-72
2022/10/07 04:00:04;;;;;;;7.75;3.08;;;10.20;99.90;;;;;;2085808;28;20053;-72
2022/10/07 04:01:10;;;;;;;8.30;3.03;;;10.20;99.90;;;;;;2084999;28;20444;-72
2022/10/07 04:02:10;;;;;;;7.53;3.38;;;10.20;99.90;;;;;;2086462;28;20052;-71
2022/10/07 04:03:13;;;;;;;5.80;2.67;;;10.20;99.90;;;;;;2086281;28;20032;-72
2022/10/07 04:04:13;;;;;;;11.38;3.20;;;10.20;99.90;;;;;;2085223;28;20032;-72
2022/10/07 04:05:16;;;;;;;8.07;2.97;;;10.20;99.90;;;;;;2086333;28;20111;-72
2022/10/07 04:06:17;;;;;;;7.10;3.08;;;10.20;99.90;;;;;;2084654;28;20032;-72
2022/10/07 04:07:20;;;;;;;9.75;2.95;;;10.20;99.90;;;;;;2085881;28;20609;-71
2022/10/07 04:08:20;;;;;;;8.18;3.15;;;10.20;99.90;;;;;;2085892;28;20040;-71
2022/10/07 04:09:21;;;;;;;12.18;3.40;;;10.10;99.90;;;;;;2086436;28;20021;-71
2022/10/07 04:10:23;;;;;;;5.78;2.63;;;10.10;99.90;;;;;;2084653;28;20031;-71
2022/10/07 04:11:24;;;;;;;10.30;3.50;;;10.10;99.90;;;;;;2085950;28;20039;-72
2022/10/07 04:12:24;;;;;;;9.00;2.55;;;10.10;99.90;;;;;;2084810;28;20094;-72
2022/10/07 04:13:25;;;;;;;8.88;2.58;;;10.10;99.90;;;;;;2085551;28;20033;-72
2022/10/07 04:14:26;;;;;;;5.03;2.42;;;10.10;99.90;;;;;;2086991;28;20400;-71
2022/10/07 04:15:26;;;;;;;8.70;3.17;;;10.10;99.90;;;;;;2076590;28;20105;-72
2022/10/07 04:16:27;;;;;;;9.43;2.95;;;10.10;99.90;;;;;;2078527;28;20419;-72
2022/10/07 04:17:28;;;;;;;9.05;3.25;;;10.10;99.90;;;;;;2086097;28;20468;-72
2022/10/07 04:18:28;;;;;;;8.82;3.28;;;10.10;99.90;;;;;;2084613;28;20017;-72
2022/10/07 04:19:29;;;;;;;10.20;2.80;;;10.10;99.90;;;;;;2085468;28;20021;-72
2022/10/07 04:20:29;;;;;;;10.32;2.90;;;10.10;99.90;;;;;;2085099;28;20029;-71
2022/10/07 04:21:30;;;;;;;8.55;3.50;;;10.10;99.90;;;;;;2086100;28;20021;-72
2022/10/07 04:22:30;;;;;;;13.07;3.28;;;10.10;99.90;;;;;;2086424;28;20013;-72
2022/10/07 04:23:31;;;;;;;7.95;2.75;;;10.10;99.90;;;;;;2083821;28;20021;-72
2022/10/07 04:24:32;;;;;;;9.43;2.95;;;10.10;99.90;;;;;;2085849;28;20575;-71
2022/10/07 04:25:32;;;;;;;6.97;3.03;;;10.10;99.90;;;;;;2084559;28;20427;-71
2022/10/07 04:26:33;;;;;;;7.95;2.65;;;10.10;99.90;;;;;;2084379;28;20507;-71
2022/10/07 04:27:37;;;;;;;4.35;2.08;;;10.10;99.90;;;;;;2086646;28;20021;-72
2022/10/07 04:28:38;;;;;;;7.80;3.05;;;10.10;99.90;;;;;;2086321;28;20472;-71
2022/10/07 04:29:39;;;;;;;8.63;2.85;;;10.10;99.90;;;;;;2084496;28;20431;-71
2022/10/07 04:30:42;;;;;;;10.68;2.83;;;10.10;99.90;;;;;;2078916;28;20120;-71
2022/10/07 04:31:43;;;;;;;7.00;2.63;;;10.10;99.90;;;;;;2078313;28;20478;-71
2022/10/07 04:32:43;;;;;;;8.18;2.97;;;10.10;99.90;;;;;;2085020;28;20029;-71
2022/10/07 04:33:45;;;;;;;6.25;2.95;;;10.10;99.90;;;;;;2085853;28;20036;-71
2022/10/07 04:34:45;;;;;;;8.02;2.78;;;10.00;99.90;;;;;;2085756;28;20025;-71
2022/10/07 04:35:47;;;;;;;10.43;3.10;;;10.10;99.90;;;;;;2086393;28;20499;-71
2022/10/07 04:36:48;;;;;;;6.53;2.95;;;10.10;99.90;;;;;;2085019;28;20376;-71
2022/10/07 04:37:50;;;;;;;10.15;3.00;;;10.00;99.90;;;;;;2086000;28;20048;-71
2022/10/07 04:38:50;;;;;;;5.70;2.47;;;10.10;99.90;;;;;;2085090;28;20030;-72
2022/10/07 04:39:51;;;;;;;10.68;2.67;;;10.10;99.90;;;;;;2086634;28;20067;-71
2022/10/07 04:40:51;;;;;;;8.50;3.17;;;10.10;99.90;;;;;;2086705;28;20865;-72
2022/10/07 04:41:53;;;;;;;6.30;2.45;;;10.00;99.90;;;;;;2079670;28;20065;-72
2022/10/07 04:44:33;;;;;;;11.45;3.53;;;10.00;99.90;;;;;;2062195;28;20026;-71
2022/10/07 04:45:34;;;;;;;7.80;2.95;;;10.00;99.90;;;;;;2062993;28;20030;-71
2022/10/07 04:46:35;;;;;;;8.35;2.67;;;10.00;99.90;;;;;;2062361;28;20118;-72
2022/10/07 04:47:36;;;;;;;10.43;3.13;;;10.00;99.90;;;;;;2062075;28;20619;-72
2022/10/07 04:48:36;;;;;;;9.88;3.08;;;10.00;99.90;;;;;;2062613;28;20474;-72
2022/10/07 04:49:37;;;;;;;7.65;3.05;;;10.00;99.90;;;;;;2062740;28;20414;-71
2022/10/07 04:50:37;;;;;;;8.93;3.40;;;10.10;99.90;;;;;;2083205;28;20036;-72
2022/10/07 04:51:38;;;;;;;7.75;3.20;;;10.10;99.90;;;;;;2087095;28;20520;-72
2022/10/07 04:52:41;;;;;;;9.30;3.00;;;10.00;99.90;;;;;;2087749;28;20107;-71
2022/10/07 04:53:42;;;;;;;9.57;2.75;;;10.00;99.90;;;;;;2087701;28;20111;-72
2022/10/07 04:54:42;;;;;;;8.05;2.97;;;10.00;99.90;;;;;;2093012;28;20023;-72
2022/10/07 04:55:46;;;;;;;10.50;2.95;;;10.00;99.90;;;;;;2093204;28;20069;-72
2022/10/07 04:56:48;;;;;;;9.43;3.17;;;10.00;99.90;;;;;;2086077;28;20032;-72
2022/10/07 04:57:49;;;;;;;8.07;3.15;;;10.00;99.90;;;;;;2088694;28;20028;-72
2022/10/07 04:58:49;;;;;;;5.40;2.80;;;10.00;99.90;;;;;;2086418;28;20472;-72
2022/10/07 04:59:50;;;;;;;11.32;3.20;;;10.00;99.90;;;;;;2087826;28;20025;-72
2022/10/07 05:00:52;;;;;;;9.55;2.92;;;10.00;99.90;;;;;;2086830;28;20537;-72
2022/10/07 05:01:53;;;;;;;9.25;2.70;;;10.00;99.90;;;;;;2086866;28;20017;-72
2022/10/07 05:02:53;;;;;;;7.50;3.15;;;10.00;99.90;;;;;;2086812;28;20032;-72
2022/10/07 05:03:55;;;;;;;8.38;2.97;;;10.00;99.90;;;;;;2085215;28;20057;-71
2022/10/07 05:04:55;;;;;;;7.45;3.08;;;10.00;99.90;;;;;;2086797;28;20881;-72
2022/10/07 05:06:04;;;;;;;8.20;2.47;;;10.00;99.90;;;;;;2088367;28;20263;-72
2022/10/07 05:07:05;;;;;;;8.85;2.83;;;10.00;99.90;;;;;;2086019;28;20784;-71
2022/10/07 05:08:06;;;;;;;15.13;3.38;;;10.00;99.90;;;;;;2086040;28;20504;-71
2022/10/07 05:09:06;;;;;;;8.35;2.90;;;10.00;99.90;;;;;;2087704;28;20024;-72
2022/10/07 05:10:08;;;;;;;9.98;3.20;;;10.00;99.90;;;;;;2086975;28;20143;-71
2022/10/07 05:11:08;;;;;;;8.80;2.67;;;10.10;99.90;;;;;;2086426;28;20021;-71
2022/10/07 05:12:09;;;;;;;12.07;3.13;;;10.00;99.90;;;;;;2087191;28;20029;-72
2022/10/07 05:13:13;;;;;;;10.27;2.75;;;10.00;99.90;;;;;;2086543;28;20044;-71
2022/10/07 05:14:13;;;;;;;8.85;2.78;;;10.00;99.90;;;;;;2088339;28;20029;-71
2022/10/07 05:15:14;;;;;;;8.40;3.10;;;10.00;99.90;;;;;;2086199;28;20035;-71
2022/10/07 05:16:15;;;;;;;5.57;2.33;;;10.00;99.90;;;;;;2086478;28;20028;-71
2022/10/07 05:17:15;;;;;;;9.65;2.70;;;10.00;99.90;;;;;;2087596;28;20035;-71
2022/10/07 05:18:17;;;;;;;7.68;2.92;;;10.00;99.90;;;;;;2087267;28;20033;-71
2022/10/07 05:19:18;;;;;;;10.40;2.92;;;10.00;99.90;;;;;;2088156;28;20024;-71
2022/10/07 05:20:20;;;;;;;9.25;3.10;;;10.00;99.90;;;;;;2086695;28;20020;-72
2022/10/07 05:21:20;;;;;;;7.28;2.65;;;10.00;99.90;;;;;;2078737;28;20107;-71
2022/10/07 05:22:21;;;;;;;7.75;2.55;;;10.00;99.90;;;;;;2079339;28;20025;-71
2022/10/07 05:23:24;;;;;;;9.00;2.67;;;10.00;99.90;;;;;;2086011;28;20025;-71
2022/10/07 05:24:25;;;;;;;11.13;2.67;;;10.00;99.90;;;;;;2086618;28;20025;-71
2022/10/07 05:25:26;;;;;;;10.57;2.80;;;10.00;99.90;;;;;;2084505;28;20040;-72
2022/10/07 05:26:26;;;;;;;9.38;2.67;;;10.00;99.90;;;;;;2087057;28;20041;-72
2022/10/07 05:27:27;;;;;;;10.80;2.95;;;10.00;99.90;;;;;;2086964;28;20021;-72
2022/10/07 05:28:27;;;;;;;10.07;2.72;;;10.00;99.90;;;;;;2087746;28;20031;-72
2022/10/07 05:29:28;;;;;;;9.02;2.80;;;10.00;99.90;;;;;;2086453;28;20029;-72
2022/10/07 05:30:28;;;;;;;7.30;2.85;;;10.00;99.90;;;;;;2087545;28;20021;-71
2022/10/07 05:31:29;;;;;;;8.85;2.60;;;10.00;99.90;;;;;;2087466;28;20767;-71
2022/10/07 05:32:29;;;;;;;8.02;2.90;;;10.00;99.90;;;;;;2087068;28;20078;-72
2022/10/07 05:33:30;;;;;;;6.93;2.53;;;10.00;99.90;;;;;;2086267;28;20025;-72
2022/10/07 05:34:31;;;;;;;5.63;2.92;;;10.00;99.90;;;;;;2087313;28;20024;-72